createdAt,value
2022-10-11T00:04:17.976Z,101946.41
2022-10-11T00:09:19.236Z,101947.72
2022-10-11T00:14:20.753Z,101961.97
2022-10-11T00:19:22.061Z,101957.47
2022-10-11T00:24:23.310Z,101962.78
2022-10-11T00:29:24.566Z,101967.34
2022-10-11T00:34:25.816Z,101956.97
2022-10-11T00:39:27.080Z,101964.78
2022-10-11T00:44:29.020Z,101962.16
2022-10-11T00:49:35.796Z,101960.28
2022-10-11T00:54:40.821Z,101973.31
2022-10-11T00:59:49.599Z,101976.53
2022-10-11T01:05:05.656Z,101980.06
2022-10-11T01:10:12.943Z,101979.81
2022-10-11T01:15:22.731Z,101980.56
2022-10-11T01:20:31.929Z,101995.13
2022-10-11T01:25:51.826Z,101993.41
2022-10-11T01:30:56.376Z,101996.34
2022-10-11T01:36:05.137Z,101996.59
2022-10-11T01:41:09.270Z,102007.66
2022-10-11T01:46:11.608Z,101991.16
2022-10-11T01:51:13.117Z,101986.91
2022-10-11T01:56:22.801Z,101989.75
2022-10-11T02:01:34.820Z,101985.78
2022-10-11T02:06:46.872Z,101996.44
2022-10-11T02:17:55.194Z,102002.28
2022-10-11T02:23:02.343Z,102007.56
2022-10-11T02:28:05.983Z,102008.53
2022-10-11T02:33:09.643Z,102008.25
2022-10-11T02:38:31.124Z,102014.03
2022-10-11T02:43:43.444Z,102017.94
2022-10-11T02:48:44.688Z,102024.66
2022-10-11T02:53:45.928Z,102031.34
2022-10-11T02:58:47.173Z,102027.97
2022-10-11T03:03:48.472Z,102034.34
2022-10-11T03:08:49.702Z,102035.03
2022-10-11T03:13:50.938Z,102042.72
2022-10-11T03:18:52.161Z,102048.38
2022-10-11T03:23:53.485Z,102044.41
2022-10-11T03:28:55.115Z,102046.31
2022-10-11T03:33:56.416Z,102050.09
2022-10-11T03:38:59.184Z,102053.13
2022-10-11T03:44:00.422Z,102049.97
2022-10-11T03:49:01.650Z,102061.31
2022-10-11T03:54:03.045Z,102012.50
2022-10-11T03:59:04.319Z,102067.66
2022-10-11T04:04:05.803Z,102071.06
2022-10-11T04:09:07.017Z,102079.75
2022-10-11T04:14:08.332Z,102077.09
2022-10-11T04:19:09.557Z,102084.38
2022-10-11T04:24:11.567Z,102091.47
2022-10-11T04:29:12.835Z,102089.31
2022-10-11T04:34:14.127Z,102092.06
2022-10-11T04:39:15.443Z,102081.25
2022-10-11T04:44:16.685Z,102097.72
2022-10-11T04:49:17.934Z,102104.00
2022-10-11T04:54:19.347Z,102104.03
2022-10-11T04:59:20.653Z,102110.03
2022-10-11T05:04:23.709Z,102108.25
2022-10-11T05:09:24.958Z,102114.44
2022-10-11T05:14:26.243Z,102108.38
2022-10-11T05:19:27.536Z,102110.31
2022-10-11T05:24:28.777Z,102110.53
2022-10-11T05:29:30.192Z,102124.75
2022-10-11T05:34:31.450Z,102123.56
2022-10-11T05:39:32.738Z,102131.50
2022-10-11T05:44:34.050Z,102129.75
2022-10-11T05:49:35.306Z,102140.06
2022-10-11T05:54:36.636Z,102146.28
2022-10-11T05:59:37.859Z,102150.53
2022-10-11T06:04:39.623Z,102153.28
2022-10-11T06:09:40.862Z,102161.19
2022-10-11T06:14:42.173Z,102170.16
2022-10-11T06:19:43.407Z,102169.22
2022-10-11T06:24:44.664Z,102175.63
2022-10-11T06:29:45.919Z,102173.50
2022-10-11T06:34:47.274Z,102178.63
2022-10-11T06:39:50.203Z,102189.47
2022-10-11T06:44:51.591Z,102198.56
2022-10-11T06:49:52.863Z,102200.13
2022-10-11T06:54:54.124Z,102211.84
2022-10-11T06:59:55.371Z,102213.25
2022-10-11T07:04:56.621Z,102210.81
2022-10-11T07:09:57.872Z,102217.59
2022-10-11T07:14:59.137Z,102226.06
2022-10-11T07:20:00.380Z,102239.22
2022-10-11T07:25:01.847Z,102238.94
2022-10-11T07:30:03.297Z,102244.41
2022-10-11T07:35:04.735Z,102249.94
2022-10-11T07:40:10.613Z,102250.41
2022-10-11T07:45:11.836Z,102245.09
2022-10-11T07:50:13.570Z,102245.38
2022-10-11T07:55:14.859Z,102252.81
2022-10-11T08:00:16.211Z,102243.13
2022-10-11T08:05:17.669Z,102249.44
2022-10-11T08:10:18.941Z,102257.44
2022-10-11T08:15:20.277Z,102249.50
2022-10-11T08:20:21.665Z,102192.28
2022-10-11T08:25:23.137Z,102248.47
2022-10-11T08:30:24.458Z,102248.09
2022-10-11T08:35:25.742Z,102254.34
2022-10-11T08:40:30.374Z,102251.22
2022-10-11T08:45:50.801Z,102259.63
2022-10-11T08:50:54.195Z,102262.41
2022-10-11T08:55:55.506Z,102262.47
2022-10-11T09:00:57.787Z,102262.91
2022-10-11T09:06:20.290Z,102268.97
2022-10-11T09:11:31.100Z,102266.78
2022-10-11T09:16:35.438Z,102267.84
2022-10-11T09:21:51.649Z,102269.06
2022-10-11T09:26:56.818Z,102261.81
2022-10-11T09:31:58.741Z,102265.31
2022-10-11T09:37:15.275Z,102257.31
2022-10-11T09:42:17.073Z,102270.41
2022-10-11T09:47:25.900Z,102262.44
2022-10-11T09:52:27.179Z,102269.63
2022-10-11T09:57:29.960Z,102266.84
2022-10-11T10:02:38.901Z,102266.00
2022-10-11T10:07:41.067Z,102268.28
2022-10-11T10:12:42.437Z,102270.56
2022-10-11T10:17:50.959Z,102277.13
2022-10-11T10:22:52.399Z,102275.38
2022-10-11T10:27:58.168Z,102278.56
2022-10-11T10:33:05.467Z,102271.44
2022-10-11T10:38:26.804Z,102268.03
2022-10-11T10:43:31.979Z,102273.09
2022-10-11T10:49:02.022Z,102271.16
2022-10-11T10:53:57.325Z,102263.03
2022-10-11T10:59:17.257Z,102257.41
2022-10-11T11:04:32.364Z,102263.72
2022-10-11T11:09:36.626Z,102270.91
2022-10-11T11:14:40.595Z,102262.28
2022-10-11T11:19:59.910Z,102257.78
2022-10-11T11:25:19.717Z,102252.34
2022-10-11T11:30:30.216Z,102247.91
2022-10-11T11:35:37.132Z,102253.50
2022-10-11T11:40:41.535Z,102244.63
2022-10-11T11:45:48.474Z,102238.56
2022-10-11T11:50:55.255Z,102234.19
2022-10-11T11:55:56.451Z,102226.63
2022-10-11T12:01:15.539Z,102223.81
2022-10-11T12:06:19.383Z,102216.38
2022-10-11T12:11:31.786Z,102225.31
2022-10-11T12:16:56.526Z,102218.38
2022-10-11T12:22:18.751Z,102192.38
2022-10-11T12:27:39.952Z,102217.72
2022-10-11T12:32:41.197Z,102202.13
2022-10-11T12:37:42.420Z,102202.28
2022-10-11T12:43:03.644Z,102203.16
2022-10-11T12:48:04.861Z,102196.31
2022-10-11T12:53:24.565Z,102200.16
2022-10-11T12:58:28.694Z,102201.66
2022-10-11T13:03:33.413Z,102181.72
2022-10-11T13:08:36.500Z,102188.59
2022-10-11T13:13:42.798Z,102179.66
2022-10-11T13:18:45.729Z,102173.72
2022-10-11T13:23:46.990Z,102168.78
2022-10-11T13:28:48.315Z,102173.06
2022-10-11T13:33:54.635Z,102172.56
2022-10-11T13:38:57.385Z,102162.03
2022-10-11T13:43:59.536Z,102166.66
2022-10-11T13:49:05.545Z,102168.19
2022-10-11T13:54:11.730Z,102160.50
2022-10-11T13:59:19.440Z,102153.63
2022-10-11T14:04:21.058Z,102159.56
2022-10-11T14:09:34.250Z,102156.31
2022-10-11T14:14:35.736Z,102158.84
2022-10-11T14:19:37.447Z,102155.38
2022-10-11T14:24:38.724Z,102151.75
2022-10-11T14:29:45.637Z,102152.56
2022-10-11T14:34:52.675Z,102149.97
2022-10-11T14:39:53.891Z,102135.34
2022-10-11T14:44:55.139Z,102143.25
2022-10-11T14:49:56.374Z,102140.59
2022-10-11T14:54:57.608Z,102139.06
2022-10-11T14:59:58.840Z,102142.56
2022-10-11T15:05:00.083Z,102135.75
2022-10-11T15:10:01.357Z,102123.38
2022-10-11T15:15:02.685Z,102126.94
2022-10-11T15:20:04.049Z,102123.41
2022-10-11T15:25:05.647Z,102112.97
2022-10-11T15:30:12.620Z,102121.69
2022-10-11T15:35:14.237Z,102119.13
2022-10-11T15:40:22.828Z,102121.69
2022-10-11T15:45:24.132Z,102120.78
2022-10-11T15:50:39.225Z,102124.13
2022-10-11T15:55:44.485Z,102124.13
2022-10-11T16:00:46.784Z,102121.47
2022-10-11T16:05:48.211Z,102124.91
2022-10-11T16:10:49.928Z,102121.41
2022-10-11T16:15:51.251Z,102124.81
2022-10-11T16:20:52.575Z,102126.47
2022-10-11T16:26:00.910Z,102118.63
2022-10-11T16:31:06.494Z,102115.13
2022-10-11T16:36:26.579Z,102116.78
2022-10-11T16:41:27.931Z,102110.59
2022-10-11T16:46:31.893Z,102120.13
2022-10-11T16:51:33.459Z,102114.72
2022-10-11T16:56:39.537Z,102118.94
2022-10-11T17:01:41.366Z,102114.34
2022-10-11T17:06:43.882Z,102115.09
2022-10-11T17:11:45.308Z,102123.53
2022-10-11T17:16:46.557Z,102119.84
2022-10-11T17:21:47.830Z,102118.16
2022-10-11T17:26:49.102Z,102124.91
2022-10-11T17:31:50.444Z,102116.78
2022-10-11T17:36:51.747Z,102114.16
2022-10-11T17:41:53.048Z,102122.63
2022-10-11T17:46:54.296Z,102121.31
2022-10-11T17:51:56.521Z,102121.88
2022-10-11T17:56:58.180Z,102119.84
2022-10-11T18:01:59.431Z,102118.16
2022-10-11T18:07:00.837Z,102124.16
2022-10-11T18:12:02.223Z,102120.59
2022-10-11T18:17:03.636Z,102130.00
2022-10-11T18:22:07.222Z,102124.59
2022-10-11T18:27:08.683Z,102126.22
2022-10-11T18:32:09.989Z,102129.56
2022-10-11T18:37:11.224Z,102090.22
2022-10-11T18:42:12.448Z,102124.94
2022-10-11T18:47:13.684Z,102121.50
2022-10-11T18:52:15.168Z,102120.38
2022-10-11T18:57:16.804Z,102115.88
2022-10-11T19:02:18.214Z,102114.22
2022-10-11T19:07:19.861Z,102104.78
2022-10-11T19:12:21.161Z,102104.63
2022-10-11T19:17:22.813Z,102102.69
2022-10-11T19:22:24.116Z,102105.78
2022-10-11T19:27:25.490Z,102104.66
2022-10-11T19:32:26.799Z,102109.88
2022-10-11T19:37:28.085Z,102102.41
2022-10-11T19:42:29.704Z,102109.31
2022-10-11T19:47:31.702Z,102105.56
2022-10-11T19:52:33.451Z,102103.09
2022-10-11T19:57:35.010Z,102107.13
2022-10-11T20:02:36.293Z,102112.91
2022-10-11T20:07:37.532Z,102110.50
2022-10-11T20:12:42.385Z,102114.88
2022-10-11T20:17:50.000Z,102110.56
2022-10-11T20:22:53.348Z,102104.47
2022-10-11T20:27:54.585Z,102112.94
2022-10-11T20:32:55.856Z,102106.63
2022-10-11T20:37:57.139Z,102100.34
2022-10-11T20:42:58.365Z,102099.41
2022-10-11T20:47:59.594Z,102095.72
2022-10-11T20:53:00.880Z,102094.72
2022-10-11T20:58:02.150Z,102094.34
2022-10-11T21:03:03.396Z,102099.16
2022-10-11T21:08:04.919Z,102091.09
2022-10-11T21:13:06.204Z,102089.34
2022-10-11T21:18:07.752Z,102089.97
2022-10-11T21:23:09.669Z,102085.72
2022-10-11T21:28:10.956Z,102084.97
2022-10-11T21:33:12.292Z,102082.84
2022-10-11T21:38:13.543Z,102011.31
2022-10-11T21:43:14.794Z,102087.13
2022-10-11T21:48:16.125Z,102088.28
2022-10-11T21:53:17.356Z,102087.03
2022-10-11T21:58:18.585Z,102093.81
2022-10-11T22:03:20.122Z,102095.28
2022-10-11T22:08:22.395Z,102101.38
2022-10-11T22:13:24.294Z,102096.19
2022-10-11T22:18:25.562Z,102032.59
2022-10-11T22:23:26.798Z,102078.28
2022-10-11T22:28:28.034Z,102085.81
2022-10-11T22:33:29.322Z,102081.00
2022-10-11T22:38:30.572Z,102078.91
2022-10-11T22:43:31.813Z,102078.66
2022-10-11T22:48:33.165Z,102077.47
2022-10-11T22:53:34.432Z,102074.91
2022-10-11T22:58:35.685Z,102072.16
2022-10-11T23:03:37.371Z,102073.81
2022-10-11T23:08:38.685Z,102078.03
2022-10-11T23:13:39.952Z,102075.31
2022-10-11T23:18:41.529Z,102071.88
2022-10-11T23:23:42.835Z,102073.34
2022-10-11T23:28:44.250Z,102068.84
2022-10-11T23:33:46.284Z,102080.28
2022-10-11T23:38:55.179Z,102067.00
2022-10-11T23:43:57.176Z,102059.41
2022-10-11T23:48:58.424Z,102066.38
2022-10-11T23:53:59.701Z,102065.47
2022-10-11T23:59:00.921Z,102064.63
